sensor_id;sensor_type;location;lat;lon;timestamp;pressure;altitude;pressure_sealevel;temperature;humidity
70248;BME280;57641;51.416;5.506;2023-04-25T00:00:16;101214.56;;;12.32;54.47
70248;BME280;57641;51.416;5.506;2023-04-25T00:02:42;101222.06;;;12.28;54.20
70248;BME280;57641;51.416;5.506;2023-04-25T00:05:08;101220.78;;;12.15;55.03
70248;BME280;57641;51.416;5.506;2023-04-25T00:07:34;101214.25;;;12.35;54.53
70248;BME280;57641;51.416;5.506;2023-04-25T00:10:00;101225.22;;;12.06;54.95
70248;BME280;57641;51.416;5.506;2023-04-25T00:12:26;101222.47;;;12.16;54.89
70248;BME280;57641;51.416;5.506;2023-04-25T00:14:54;101225.81;;;12.36;53.99
70248;BME280;57641;51.416;5.506;2023-04-25T00:17:22;101231.91;;;12.28;54.87
70248;BME280;57641;51.416;5.506;2023-04-25T00:19:50;101234.59;;;12.28;54.43
70248;BME280;57641;51.416;5.506;2023-04-25T00:22:16;101241.16;;;12.34;55.06
70248;BME280;57641;51.416;5.506;2023-04-25T00:24:42;101239.44;;;12.50;54.01
70248;BME280;57641;51.416;5.506;2023-04-25T00:27:08;101237.81;;;12.14;54.95
70248;BME280;57641;51.416;5.506;2023-04-25T00:29:34;101240.69;;;12.38;54.57
70248;BME280;57641;51.416;5.506;2023-04-25T00:32:00;101245.72;;;12.41;54.51
70248;BME280;57641;51.416;5.506;2023-04-25T00:34:26;101236.53;;;12.44;54.82
70248;BME280;57641;51.416;5.506;2023-04-25T00:36:52;101231.06;;;12.27;54.75
70248;BME280;57641;51.416;5.506;2023-04-25T00:39:17;101235.13;;;12.32;54.50
70248;BME280;57641;51.416;5.506;2023-04-25T00:41:43;101236.25;;;12.47;54.19
70248;BME280;57641;51.416;5.506;2023-04-25T00:44:11;101232.09;;;12.26;54.31
70248;BME280;57641;51.416;5.506;2023-04-25T00:46:38;101218.25;;;12.31;54.73
70248;BME280;57641;51.416;5.506;2023-04-25T00:49:05;101223.13;;;12.18;54.40
70248;BME280;57641;51.416;5.506;2023-04-25T00:51:30;101227.56;;;12.27;54.67
70248;BME280;57641;51.416;5.506;2023-04-25T00:53:57;101224.72;;;12.28;54.23
70248;BME280;57641;51.416;5.506;2023-04-25T00:56:23;101224.69;;;12.03;54.98
70248;BME280;57641;51.416;5.506;2023-04-25T00:58:50;101228.63;;;12.16;54.86
70248;BME280;57641;51.416;5.506;2023-04-25T01:01:19;101235.00;;;12.15;55.07
70248;BME280;57641;51.416;5.506;2023-04-25T01:03:46;101235.84;;;12.16;54.36
70248;BME280;57641;51.416;5.506;2023-04-25T01:06:12;101226.56;;;12.28;54.87
70248;BME280;57641;51.416;5.506;2023-04-25T01:08:38;101236.28;;;12.29;54.63
70248;BME280;57641;51.416;5.506;2023-04-25T01:11:05;101229.00;;;12.21;54.91
70248;BME280;57641;51.416;5.506;2023-04-25T01:13:32;101227.34;;;12.20;54.74
70248;BME280;57641;51.416;5.506;2023-04-25T01:15:59;101220.75;;;12.33;54.98
70248;BME280;57641;51.416;5.506;2023-04-25T01:18:25;101229.00;;;12.39;54.63
70248;BME280;57641;51.416;5.506;2023-04-25T01:20:52;101226.84;;;12.43;55.03
70248;BME280;57641;51.416;5.506;2023-04-25T01:23:20;101218.16;;;12.23;54.61
70248;BME280;57641;51.416;5.506;2023-04-25T01:25:46;101238.44;;;12.08;54.92
70248;BME280;57641;51.416;5.506;2023-04-25T01:28:12;101232.78;;;11.93;55.09
70248;BME280;57641;51.416;5.506;2023-04-25T01:30:38;101239.50;;;12.15;55.00
70248;BME280;57641;51.416;5.506;2023-04-25T01:33:04;101228.94;;;12.13;54.90
70248;BME280;57641;51.416;5.506;2023-04-25T01:35:31;101232.84;;;12.19;54.99
70248;BME280;57641;51.416;5.506;2023-04-25T01:37:58;101237.34;;;12.18;55.43
70248;BME280;57641;51.416;5.506;2023-04-25T01:40:24;101234.91;;;12.07;54.97
70248;BME280;57641;51.416;5.506;2023-04-25T01:42:50;101240.56;;;12.04;54.91
70248;BME280;57641;51.416;5.506;2023-04-25T01:45:17;101238.75;;;12.05;55.31
70248;BME280;57641;51.416;5.506;2023-04-25T01:47:43;101240.78;;;12.11;55.33
70248;BME280;57641;51.416;5.506;2023-04-25T01:50:12;101242.94;;;12.07;55.22
70248;BME280;57641;51.416;5.506;2023-04-25T01:52:37;101237.34;;;12.01;55.44
70248;BME280;57641;51.416;5.506;2023-04-25T01:55:03;101246.75;;;12.05;55.59
70248;BME280;57641;51.416;5.506;2023-04-25T01:57:29;101254.31;;;12.09;54.97
70248;BME280;57641;51.416;5.506;2023-04-25T01:59:59;101245.91;;;12.04;55.24
70248;BME280;57641;51.416;5.506;2023-04-25T02:02:25;101244.13;;;11.95;55.49
70248;BME280;57641;51.416;5.506;2023-04-25T02:04:51;101250.66;;;11.93;55.93
70248;BME280;57641;51.416;5.506;2023-04-25T02:07:17;101249.19;;;11.98;55.53
70248;BME280;57641;51.416;5.506;2023-04-25T02:09:43;101248.69;;;11.95;55.63
70248;BME280;57641;51.416;5.506;2023-04-25T02:12:09;101260.25;;;11.85;55.55
70248;BME280;57641;51.416;5.506;2023-04-25T02:14:35;101266.28;;;11.88;55.61
70248;BME280;57641;51.416;5.506;2023-04-25T02:17:01;101260.09;;;11.87;56.21
70248;BME280;57641;51.416;5.506;2023-04-25T02:19:26;101265.44;;;11.87;56.50
70248;BME280;57641;51.416;5.506;2023-04-25T02:21:52;101265.00;;;11.92;56.54
70248;BME280;57641;51.416;5.506;2023-04-25T02:24:17;101258.13;;;11.89;56.44
70248;BME280;57641;51.416;5.506;2023-04-25T02:26:43;101259.66;;;11.92;56.95
70248;BME280;57641;51.416;5.506;2023-04-25T02:29:09;101268.38;;;11.94;56.26
70248;BME280;57641;51.416;5.506;2023-04-25T02:31:35;101272.47;;;11.88;56.73
70248;BME280;57641;51.416;5.506;2023-04-25T02:34:01;101266.81;;;11.91;56.74
70248;BME280;57641;51.416;5.506;2023-04-25T02:36:26;101273.31;;;11.89;57.03
70248;BME280;57641;51.416;5.506;2023-04-25T02:38:53;101273.31;;;11.89;56.56
70248;BME280;57641;51.416;5.506;2023-04-25T02:41:18;101275.00;;;11.90;56.45
70248;BME280;57641;51.416;5.506;2023-04-25T02:43:43;101275.22;;;11.96;56.23
70248;BME280;57641;51.416;5.506;2023-04-25T02:46:09;101272.34;;;11.90;55.94
70248;BME280;57641;51.416;5.506;2023-04-25T02:48:35;101269.34;;;11.93;56.68
70248;BME280;57641;51.416;5.506;2023-04-25T02:51:00;101272.41;;;11.98;56.56
70248;BME280;57641;51.416;5.506;2023-04-25T02:53:26;101274.75;;;11.83;56.45
70248;BME280;57641;51.416;5.506;2023-04-25T02:55:51;101268.97;;;11.88;56.31
70248;BME280;57641;51.416;5.506;2023-04-25T02:58:18;101272.88;;;11.93;56.03
70248;BME280;57641;51.416;5.506;2023-04-25T03:00:44;101266.69;;;11.93;56.35
70248;BME280;57641;51.416;5.506;2023-04-25T03:03:09;101266.44;;;11.86;55.85
70248;BME280;57641;51.416;5.506;2023-04-25T03:05:35;101258.53;;;11.94;56.44
70248;BME280;57641;51.416;5.506;2023-04-25T03:08:00;101257.97;;;11.91;56.43
70248;BME280;57641;51.416;5.506;2023-04-25T03:10:26;101270.09;;;11.85;55.67
70248;BME280;57641;51.416;5.506;2023-04-25T03:12:51;101265.31;;;11.89;56.42
70248;BME280;57641;51.416;5.506;2023-04-25T03:15:17;101267.53;;;11.93;56.06
70248;BME280;57641;51.416;5.506;2023-04-25T03:17:42;101271.50;;;11.89;55.20
70248;BME280;57641;51.416;5.506;2023-04-25T03:20:08;101274.38;;;11.96;56.03
70248;BME280;57641;51.416;5.506;2023-04-25T03:22:34;101273.38;;;11.97;55.63
70248;BME280;57641;51.416;5.506;2023-04-25T03:24:59;101275.53;;;11.93;56.31
70248;BME280;57641;51.416;5.506;2023-04-25T03:27:25;101280.75;;;11.95;56.04
70248;BME280;57641;51.416;5.506;2023-04-25T03:29:51;101280.50;;;11.88;55.16
70248;BME280;57641;51.416;5.506;2023-04-25T03:32:16;101281.63;;;11.85;55.88
70248;BME280;57641;51.416;5.506;2023-04-25T03:34:42;101282.69;;;11.75;56.27
70248;BME280;57641;51.416;5.506;2023-04-25T03:37:07;101285.19;;;11.76;55.49
70248;BME280;57641;51.416;5.506;2023-04-25T03:39:32;101285.53;;;11.64;55.63
70248;BME280;57641;51.416;5.506;2023-04-25T03:41:58;101282.59;;;11.84;55.18
70248;BME280;57641;51.416;5.506;2023-04-25T03:44:23;101278.19;;;11.75;55.13
70248;BME280;57641;51.416;5.506;2023-04-25T03:46:49;101280.94;;;11.83;55.27
70248;BME280;57641;51.416;5.506;2023-04-25T03:49:16;101283.31;;;11.87;55.16
70248;BME280;57641;51.416;5.506;2023-04-25T03:51:41;101281.03;;;11.92;55.25
70248;BME280;57641;51.416;5.506;2023-04-25T03:54:07;101279.78;;;11.86;54.96
70248;BME280;57641;51.416;5.506;2023-04-25T03:56:33;101275.41;;;11.95;55.63
70248;BME280;57641;51.416;5.506;2023-04-25T03:58:58;101280.63;;;11.87;54.63
70248;BME280;57641;51.416;5.506;2023-04-25T04:01:23;101282.22;;;11.79;55.40
70248;BME280;57641;51.416;5.506;2023-04-25T04:03:49;101286.47;;;11.72;55.41
70248;BME280;57641;51.416;5.506;2023-04-25T04:06:14;101292.38;;;11.76;55.39
70248;BME280;57641;51.416;5.506;2023-04-25T04:08:40;101287.56;;;11.79;55.13
70248;BME280;57641;51.416;5.506;2023-04-25T04:11:06;101294.31;;;11.83;55.70
70248;BME280;57641;51.416;5.506;2023-04-25T04:13:31;101296.28;;;11.81;56.09
70248;BME280;57641;51.416;5.506;2023-04-25T04:15:57;101293.41;;;11.93;55.45
70248;BME280;57641;51.416;5.506;2023-04-25T04:18:23;101302.84;;;11.87;55.20
70248;BME280;57641;51.416;5.506;2023-04-25T04:20:48;101303.78;;;11.96;55.74
70248;BME280;57641;51.416;5.506;2023-04-25T04:23:14;101297.81;;;11.84;54.86
70248;BME280;57641;51.416;5.506;2023-04-25T04:25:40;101306.44;;;11.96;54.99
70248;BME280;57641;51.416;5.506;2023-04-25T04:28:06;101298.59;;;11.94;55.24
70248;BME280;57641;51.416;5.506;2023-04-25T04:30:32;101310.66;;;11.98;54.95
70248;BME280;57641;51.416;5.506;2023-04-25T04:33:01;101310.56;;;11.90;55.51
70248;BME280;57641;51.416;5.506;2023-04-25T04:35:27;101310.81;;;11.97;55.23
70248;BME280;57641;51.416;5.506;2023-04-25T04:37:53;101313.94;;;11.92;55.61
70248;BME280;57641;51.416;5.506;2023-04-25T04:40:20;101311.00;;;11.85;55.51
70248;BME280;57641;51.416;5.506;2023-04-25T04:42:47;101314.78;;;11.93;55.61
70248;BME280;57641;51.416;5.506;2023-04-25T04:45:13;101319.09;;;11.76;55.52
70248;BME280;57641;51.416;5.506;2023-04-25T04:47:39;101322.16;;;11.81;55.24
70248;BME280;57641;51.416;5.506;2023-04-25T04:50:07;101335.44;;;11.73;55.23
70248;BME280;57641;51.416;5.506;2023-04-25T04:52:36;101326.06;;;11.87;55.14
70248;BME280;57641;51.416;5.506;2023-04-25T04:55:04;101322.41;;;11.88;54.75
70248;BME280;57641;51.416;5.506;2023-04-25T04:57:29;101326.81;;;11.79;55.06
70248;BME280;57641;51.416;5.506;2023-04-25T04:59:56;101339.91;;;11.35;56.15
70248;BME280;57641;51.416;5.506;2023-04-25T05:02:22;101341.25;;;11.86;54.51
70248;BME280;57641;51.416;5.506;2023-04-25T05:04:47;101337.00;;;11.93;53.90
70248;BME280;57641;51.416;5.506;2023-04-25T05:07:13;101347.09;;;11.99;54.30
70248;BME280;57641;51.416;5.506;2023-04-25T05:09:39;101356.28;;;11.87;54.28
70248;BME280;57641;51.416;5.506;2023-04-25T05:12:05;101364.84;;;11.91;53.89
70248;BME280;57641;51.416;5.506;2023-04-25T05:14:31;101359.81;;;11.88;54.43
70248;BME280;57641;51.416;5.506;2023-04-25T05:16:56;101364.44;;;11.85;54.26
70248;BME280;57641;51.416;5.506;2023-04-25T05:19:21;101365.75;;;11.81;53.93
70248;BME280;57641;51.416;5.506;2023-04-25T05:21:47;101365.44;;;11.84;54.42
70248;BME280;57641;51.416;5.506;2023-04-25T05:24:12;101366.28;;;11.85;54.17
70248;BME280;57641;51.416;5.506;2023-04-25T05:26:38;101374.78;;;11.98;54.20
70248;BME280;57641;51.416;5.506;2023-04-25T05:29:03;101370.69;;;12.04;53.64
70248;BME280;57641;51.416;5.506;2023-04-25T05:31:31;101385.09;;;12.11;53.06
70248;BME280;57641;51.416;5.506;2023-04-25T05:33:57;101374.59;;;12.09;53.09
70248;BME280;57641;51.416;5.506;2023-04-25T05:36:23;101374.38;;;12.20;52.21
70248;BME280;57641;51.416;5.506;2023-04-25T05:38:48;101378.50;;;12.15;51.51
70248;BME280;57641;51.416;5.506;2023-04-25T05:41:13;101384.03;;;12.04;51.58
70248;BME280;57641;51.416;5.506;2023-04-25T05:43:39;101379.09;;;12.09;52.26
70248;BME280;57641;51.416;5.506;2023-04-25T05:46:11;101383.34;;;12.02;52.44
70248;BME280;57641;51.416;5.506;2023-04-25T05:48:37;101388.19;;;12.16;51.36
70248;BME280;57641;51.416;5.506;2023-04-25T05:51:03;101389.00;;;12.16;51.30
70248;BME280;57641;51.416;5.506;2023-04-25T05:53:28;101392.91;;;12.04;51.89
70248;BME280;57641;51.416;5.506;2023-04-25T05:55:54;101402.56;;;11.88;51.87
70248;BME280;57641;51.416;5.506;2023-04-25T05:58:20;101401.72;;;12.14;52.25
70248;BME280;57641;51.416;5.506;2023-04-25T06:00:45;101401.19;;;12.28;51.97
70248;BME280;57641;51.416;5.506;2023-04-25T06:03:12;101398.75;;;12.35;50.84
70248;BME280;57641;51.416;5.506;2023-04-25T06:05:41;101405.34;;;12.41;50.58
70248;BME280;57641;51.416;5.506;2023-04-25T06:08:07;101408.22;;;12.30;51.32
70248;BME280;57641;51.416;5.506;2023-04-25T06:10:32;101405.03;;;12.26;51.21
70248;BME280;57641;51.416;5.506;2023-04-25T06:12:58;101409.84;;;12.40;50.82
70248;BME280;57641;51.416;5.506;2023-04-25T06:15:23;101420.84;;;12.37;50.64
70248;BME280;57641;51.416;5.506;2023-04-25T06:17:49;101412.88;;;12.27;50.63
70248;BME280;57641;51.416;5.506;2023-04-25T06:20:14;101416.31;;;12.38;50.66
70248;BME280;57641;51.416;5.506;2023-04-25T06:22:40;101419.84;;;12.38;50.78
70248;BME280;57641;51.416;5.506;2023-04-25T06:25:06;101423.59;;;12.45;50.31
70248;BME280;57641;51.416;5.506;2023-04-25T06:27:33;101420.06;;;12.45;50.95
70248;BME280;57641;51.416;5.506;2023-04-25T06:29:59;101421.06;;;12.44;50.04
70248;BME280;57641;51.416;5.506;2023-04-25T06:32:24;101421.75;;;12.46;50.98
70248;BME280;57641;51.416;5.506;2023-04-25T06:34:50;101423.06;;;12.42;50.31
70248;BME280;57641;51.416;5.506;2023-04-25T06:37:16;101420.78;;;12.47;51.07
70248;BME280;57641;51.416;5.506;2023-04-25T06:39:42;101432.38;;;12.55;50.82
70248;BME280;57641;51.416;5.506;2023-04-25T06:42:07;101432.69;;;12.35;49.67
70248;BME280;57641;51.416;5.506;2023-04-25T06:44:33;101438.28;;;12.41;49.64
70248;BME280;57641;51.416;5.506;2023-04-25T06:46:59;101440.28;;;12.57;49.94
70248;BME280;57641;51.416;5.506;2023-04-25T06:49:24;101444.56;;;12.67;50.00
70248;BME280;57641;51.416;5.506;2023-04-25T06:51:49;101445.59;;;12.75;48.69
70248;BME280;57641;51.416;5.506;2023-04-25T06:54:15;101451.41;;;12.70;47.38
70248;BME280;57641;51.416;5.506;2023-04-25T06:56:41;101456.56;;;12.81;46.90
70248;BME280;57641;51.416;5.506;2023-04-25T06:59:06;101459.34;;;12.26;45.48
70248;BME280;57641;51.416;5.506;2023-04-25T07:01:32;101452.69;;;12.31;46.37
70248;BME280;57641;51.416;5.506;2023-04-25T07:03:57;101446.00;;;12.62;46.44
70248;BME280;57641;51.416;5.506;2023-04-25T07:06:23;101451.19;;;12.81;45.28
70248;BME280;57641;51.416;5.506;2023-04-25T07:08:49;101455.25;;;12.67;44.92
70248;BME280;57641;51.416;5.506;2023-04-25T07:11:14;101458.19;;;12.74;45.55
70248;BME280;57641;51.416;5.506;2023-04-25T07:13:40;101466.84;;;12.58;45.87
70248;BME280;57641;51.416;5.506;2023-04-25T07:16:05;101468.41;;;12.61;45.58
70248;BME280;57641;51.416;5.506;2023-04-25T07:18:31;101463.22;;;12.77;46.19
70248;BME280;57641;51.416;5.506;2023-04-25T07:20:56;101469.72;;;12.92;46.12
70248;BME280;57641;51.416;5.506;2023-04-25T07:23:22;101470.69;;;13.09;45.43
70248;BME280;57641;51.416;5.506;2023-04-25T07:25:47;101475.31;;;12.54;45.03
70248;BME280;57641;51.416;5.506;2023-04-25T07:28:12;101472.28;;;13.02;43.77
70248;BME280;57641;51.416;5.506;2023-04-25T07:30:38;101470.41;;;13.12;42.90
70248;BME280;57641;51.416;5.506;2023-04-25T07:33:04;101469.47;;;12.68;41.07
70248;BME280;57641;51.416;5.506;2023-04-25T07:35:29;101470.22;;;12.96;40.90
70248;BME280;57641;51.416;5.506;2023-04-25T07:37:55;101471.53;;;12.92;41.89
70248;BME280;57641;51.416;5.506;2023-04-25T07:40:20;101467.41;;;12.80;41.61
70248;BME280;57641;51.416;5.506;2023-04-25T07:42:46;101472.00;;;13.05;41.47
70248;BME280;57641;51.416;5.506;2023-04-25T07:45:12;101481.31;;;13.01;42.00
70248;BME280;57641;51.416;5.506;2023-04-25T07:47:37;101483.94;;;12.93;41.64
70248;BME280;57641;51.416;5.506;2023-04-25T07:50:04;101478.06;;;12.89;42.83
70248;BME280;57641;51.416;5.506;2023-04-25T07:52:30;101497.06;;;12.86;42.37
70248;BME280;57641;51.416;5.506;2023-04-25T07:54:55;101492.28;;;12.90;42.79
70248;BME280;57641;51.416;5.506;2023-04-25T07:57:21;101499.84;;;13.30;42.07
70248;BME280;57641;51.416;5.506;2023-04-25T07:59:46;101495.38;;;13.38;41.39
70248;BME280;57641;51.416;5.506;2023-04-25T08:02:12;101500.47;;;13.24;40.30
70248;BME280;57641;51.416;5.506;2023-04-25T08:04:37;101507.75;;;13.31;40.07
70248;BME280;57641;51.416;5.506;2023-04-25T08:07:03;101514.97;;;13.39;40.06
70248;BME280;57641;51.416;5.506;2023-04-25T08:09:28;101520.22;;;13.66;40.61
70248;BME280;57641;51.416;5.506;2023-04-25T08:11:54;101520.91;;;13.25;40.79
70248;BME280;57641;51.416;5.506;2023-04-25T08:14:20;101512.53;;;13.45;40.72
70248;BME280;57641;51.416;5.506;2023-04-25T08:16:45;101522.34;;;13.37;40.73
70248;BME280;57641;51.416;5.506;2023-04-25T08:19:11;101526.81;;;13.54;41.28
70248;BME280;57641;51.416;5.506;2023-04-25T08:21:37;101523.28;;;13.53;41.39
70248;BME280;57641;51.416;5.506;2023-04-25T08:24:02;101538.75;;;13.60;40.47
70248;BME280;57641;51.416;5.506;2023-04-25T08:26:28;101545.44;;;13.56;40.13
70248;BME280;57641;51.416;5.506;2023-04-25T08:28:54;101547.34;;;13.63;39.03
70248;BME280;57641;51.416;5.506;2023-04-25T08:31:20;101548.13;;;13.81;40.18
70248;BME280;57641;51.416;5.506;2023-04-25T08:33:46;101542.19;;;13.95;39.56
70248;BME280;57641;51.416;5.506;2023-04-25T08:36:11;101539.59;;;13.86;39.17
70248;BME280;57641;51.416;5.506;2023-04-25T08:38:37;101541.91;;;14.07;39.40
70248;BME280;57641;51.416;5.506;2023-04-25T08:41:02;101553.34;;;13.83;39.58
70248;BME280;57641;51.416;5.506;2023-04-25T08:43:29;101552.19;;;13.42;39.92
70248;BME280;57641;51.416;5.506;2023-04-25T08:46:00;101564.28;;;13.46;40.52
70248;BME280;57641;51.416;5.506;2023-04-25T08:48:27;101571.03;;;13.32;41.57
70248;BME280;57641;51.416;5.506;2023-04-25T08:50:55;101572.44;;;13.44;40.91
70248;BME280;57641;51.416;5.506;2023-04-25T08:53:25;101576.03;;;13.00;41.65
70248;BME280;57641;51.416;5.506;2023-04-25T08:55:56;101581.34;;;12.82;41.64
70248;BME280;57641;51.416;5.506;2023-04-25T08:58:22;101573.63;;;13.42;39.97
70248;BME280;57641;51.416;5.506;2023-04-25T09:00:49;101577.56;;;13.38;40.98
70248;BME280;57641;51.416;5.506;2023-04-25T09:03:16;101590.19;;;13.28;40.15
70248;BME280;57641;51.416;5.506;2023-04-25T09:05:42;101598.31;;;13.53;40.98
70248;BME280;57641;51.416;5.506;2023-04-25T09:08:07;101603.50;;;13.73;40.51
70248;BME280;57641;51.416;5.506;2023-04-25T09:10:33;101597.44;;;13.88;40.46
70248;BME280;57641;51.416;5.506;2023-04-25T09:13:08;101601.44;;;13.84;40.51
70248;BME280;57641;51.416;5.506;2023-04-25T09:15:54;101610.38;;;13.93;41.05
70248;BME280;57641;51.416;5.506;2023-04-25T09:20:54;101622.16;;;14.00;38.47
70248;BME280;57641;51.416;5.506;2023-04-25T09:23:21;101613.84;;;14.11;38.99
70248;BME280;57641;51.416;5.506;2023-04-25T09:25:49;101617.56;;;14.18;38.17
70248;BME280;57641;51.416;5.506;2023-04-25T09:28:15;101618.31;;;14.03;38.17
70248;BME280;57641;51.416;5.506;2023-04-25T09:30:41;101621.44;;;14.42;38.16
70248;BME280;57641;51.416;5.506;2023-04-25T09:33:08;101620.06;;;14.63;38.24
70248;BME280;57641;51.416;5.506;2023-04-25T09:35:38;101624.16;;;14.50;38.34
70248;BME280;57641;51.416;5.506;2023-04-25T09:38:11;101621.09;;;14.19;38.03
70248;BME280;57641;51.416;5.506;2023-04-25T09:40:45;101632.44;;;13.87;39.40
70248;BME280;57641;51.416;5.506;2023-04-25T09:43:24;101637.66;;;14.14;38.29
70248;BME280;57641;51.416;5.506;2023-04-25T09:45:54;101639.34;;;13.54;38.34
70248;BME280;57641;51.416;5.506;2023-04-25T09:48:26;101629.84;;;13.77;38.57
70248;BME280;57641;51.416;5.506;2023-04-25T09:53:30;101652.81;;;14.23;37.83
70248;BME280;57641;51.416;5.506;2023-04-25T09:55:59;101643.84;;;14.32;37.50
70248;BME280;57641;51.416;5.506;2023-04-25T09:58:25;101643.97;;;14.31;37.25
70248;BME280;57641;51.416;5.506;2023-04-25T10:00:55;101647.25;;;14.68;34.74
70248;BME280;57641;51.416;5.506;2023-04-25T10:03:25;101653.19;;;14.54;36.10
70248;BME280;57641;51.416;5.506;2023-04-25T10:05:51;101642.03;;;14.67;35.95
70248;BME280;57641;51.416;5.506;2023-04-25T10:08:19;101641.47;;;14.55;36.33
70248;BME280;57641;51.416;5.506;2023-04-25T10:10:46;101646.44;;;14.76;37.19
70248;BME280;57641;51.416;5.506;2023-04-25T10:13:13;101642.81;;;14.59;37.00
70248;BME280;57641;51.416;5.506;2023-04-25T10:15:40;101658.38;;;13.86;38.33
70248;BME280;57641;51.416;5.506;2023-04-25T10:18:06;101646.28;;;14.77;37.22
70248;BME280;57641;51.416;5.506;2023-04-25T10:20:32;101641.25;;;14.74;37.00
70248;BME280;57641;51.416;5.506;2023-04-25T10:23:06;101636.50;;;14.68;36.70
70248;BME280;57641;51.416;5.506;2023-04-25T10:25:33;101644.00;;;14.57;36.97
70248;BME280;57641;51.416;5.506;2023-04-25T10:27:59;101647.97;;;14.87;37.61
70248;BME280;57641;51.416;5.506;2023-04-25T10:30:27;101650.38;;;14.98;37.06
70248;BME280;57641;51.416;5.506;2023-04-25T10:32:54;101648.88;;;15.03;37.17
70248;BME280;57641;51.416;5.506;2023-04-25T10:35:26;101650.16;;;15.41;35.94
70248;BME280;57641;51.416;5.506;2023-04-25T10:38:15;101647.81;;;14.88;32.94
70248;BME280;57641;51.416;5.506;2023-04-25T10:40:41;101646.34;;;14.94;33.22
70248;BME280;57641;51.416;5.506;2023-04-25T10:43:35;101656.25;;;14.93;33.78
70248;BME280;57641;51.416;5.506;2023-04-25T10:46:12;101666.69;;;14.96;34.27
70248;BME280;57641;51.416;5.506;2023-04-25T10:48:46;101652.41;;;14.96;33.74
70248;BME280;57641;51.416;5.506;2023-04-25T10:51:19;101647.47;;;14.83;35.36
70248;BME280;57641;51.416;5.506;2023-04-25T10:53:46;101638.91;;;14.79;34.13
70248;BME280;57641;51.416;5.506;2023-04-25T10:58:47;101649.63;;;15.21;32.81
70248;BME280;57641;51.416;5.506;2023-04-25T11:01:14;101649.81;;;15.44;32.47
70248;BME280;57641;51.416;5.506;2023-04-25T11:03:43;101650.91;;;15.59;31.85
70248;BME280;57641;51.416;5.506;2023-04-25T11:06:22;101652.75;;;15.59;32.18
70248;BME280;57641;51.416;5.506;2023-04-25T11:08:51;101654.00;;;14.47;33.82
70248;BME280;57641;51.416;5.506;2023-04-25T11:11:18;101649.22;;;15.00;32.58
70248;BME280;57641;51.416;5.506;2023-04-25T11:13:44;101653.50;;;14.43;35.00
70248;BME280;57641;51.416;5.506;2023-04-25T11:16:13;101650.50;;;14.88;34.07
70248;BME280;57641;51.416;5.506;2023-04-25T11:18:41;101660.88;;;14.75;34.45
70248;BME280;57641;51.416;5.506;2023-04-25T11:21:07;101649.16;;;14.84;34.23
70248;BME280;57641;51.416;5.506;2023-04-25T11:23:32;101653.81;;;14.74;34.84
70248;BME280;57641;51.416;5.506;2023-04-25T11:25:58;101659.38;;;15.23;34.45
70248;BME280;57641;51.416;5.506;2023-04-25T11:28:26;101659.47;;;15.63;34.63
70248;BME280;57641;51.416;5.506;2023-04-25T11:30:51;101663.03;;;15.13;34.50
70248;BME280;57641;51.416;5.506;2023-04-25T11:33:17;101671.25;;;15.12;34.23
70248;BME280;57641;51.416;5.506;2023-04-25T11:35:43;101667.13;;;14.84;35.08
70248;BME280;57641;51.416;5.506;2023-04-25T11:38:09;101665.34;;;15.00;35.00
70248;BME280;57641;51.416;5.506;2023-04-25T11:40:36;101680.59;;;14.66;36.53
70248;BME280;57641;51.416;5.506;2023-04-25T11:43:01;101688.88;;;14.47;37.64
70248;BME280;57641;51.416;5.506;2023-04-25T11:45:27;101699.84;;;14.35;38.88
70248;BME280;57641;51.416;5.506;2023-04-25T11:47:54;101697.31;;;14.52;39.37
70248;BME280;57641;51.416;5.506;2023-04-25T11:50:20;101709.47;;;14.20;39.62
70248;BME280;57641;51.416;5.506;2023-04-25T11:52:46;101711.91;;;13.96;40.38
70248;BME280;57641;51.416;5.506;2023-04-25T11:55:16;101705.88;;;13.59;40.10
70248;BME280;57641;51.416;5.506;2023-04-25T11:57:44;101708.94;;;13.99;40.23
70248;BME280;57641;51.416;5.506;2023-04-25T12:00:20;101702.78;;;14.07;39.12
70248;BME280;57641;51.416;5.506;2023-04-25T12:02:50;101706.88;;;14.11;38.98
70248;BME280;57641;51.416;5.506;2023-04-25T12:05:16;101713.06;;;14.11;37.62
70248;BME280;57641;51.416;5.506;2023-04-25T12:07:42;101709.63;;;14.62;36.55
70248;BME280;57641;51.416;5.506;2023-04-25T12:10:13;101710.19;;;14.74;36.16
70248;BME280;57641;51.416;5.506;2023-04-25T12:12:43;101702.97;;;14.74;36.39
70248;BME280;57641;51.416;5.506;2023-04-25T12:15:17;101711.78;;;14.59;35.57
70248;BME280;57641;51.416;5.506;2023-04-25T12:17:48;101706.53;;;14.83;36.81
70248;BME280;57641;51.416;5.506;2023-04-25T12:20:23;101700.63;;;15.13;34.95
70248;BME280;57641;51.416;5.506;2023-04-25T12:22:51;101705.56;;;15.26;34.35
70248;BME280;57641;51.416;5.506;2023-04-25T12:25:43;101711.41;;;14.79;35.14
70248;BME280;57641;51.416;5.506;2023-04-25T12:28:19;101707.63;;;14.98;35.62
70248;BME280;57641;51.416;5.506;2023-04-25T12:31:01;101713.59;;;14.32;36.14
70248;BME280;57641;51.416;5.506;2023-04-25T12:33:32;101715.28;;;14.59;35.01
70248;BME280;57641;51.416;5.506;2023-04-25T12:35:59;101705.53;;;14.84;35.70
70248;BME280;57641;51.416;5.506;2023-04-25T12:38:26;101713.13;;;14.63;35.63
70248;BME280;57641;51.416;5.506;2023-04-25T12:40:52;101719.53;;;14.96;35.53
70248;BME280;57641;51.416;5.506;2023-04-25T12:43:18;101718.50;;;14.97;32.51
70248;BME280;57641;51.416;5.506;2023-04-25T12:45:45;101718.50;;;14.37;32.74
70248;BME280;57641;51.416;5.506;2023-04-25T12:48:12;101718.00;;;14.93;33.09
70248;BME280;57641;51.416;5.506;2023-04-25T12:50:38;101710.84;;;14.76;33.45
70248;BME280;57641;51.416;5.506;2023-04-25T12:53:03;101721.63;;;15.18;31.66
70248;BME280;57641;51.416;5.506;2023-04-25T12:55:29;101719.63;;;15.12;31.79